sensor_id;sensor_type;location;lat;lon;timestamp;temperature;humidity
63202;DHT22;49296;48.188;11.566;2022-10-22T00:01:21;15.52;79.96
63202;DHT22;49296;48.188;11.566;2022-10-22T00:03:48;15.62;79.85
63202;DHT22;49296;48.188;11.566;2022-10-22T00:06:15;15.67;79.75
63202;DHT22;49296;48.188;11.566;2022-10-22T00:08:41;15.74;79.66
63202;DHT22;49296;48.188;11.566;2022-10-22T00:11:09;15.76;79.58
63202;DHT22;49296;48.188;11.566;2022-10-22T00:13:35;15.83;79.51
63202;DHT22;49296;48.188;11.566;2022-10-22T00:16:01;15.79;79.61
63202;DHT22;49296;48.188;11.566;2022-10-22T00:18:29;15.77;79.62
63202;DHT22;49296;48.188;11.566;2022-10-22T00:20:56;15.50;80.46
63202;DHT22;49296;48.188;11.566;2022-10-22T00:23:22;15.55;80.44
63202;DHT22;49296;48.188;11.566;2022-10-22T00:25:49;15.56;80.25
63202;DHT22;49296;48.188;11.566;2022-10-22T00:28:15;15.55;80.47
63202;DHT22;49296;48.188;11.566;2022-10-22T00:30:42;15.67;80.01
63202;DHT22;49296;48.188;11.566;2022-10-22T00:33:08;15.60;80.07
63202;DHT22;49296;48.188;11.566;2022-10-22T00:35:36;15.40;80.78
63202;DHT22;49296;48.188;11.566;2022-10-22T00:38:02;15.34;81.22
63202;DHT22;49296;48.188;11.566;2022-10-22T00:40:29;15.24;81.67
63202;DHT22;49296;48.188;11.566;2022-10-22T00:42:55;15.07;81.95
63202;DHT22;49296;48.188;11.566;2022-10-22T00:45:23;14.67;83.62
63202;DHT22;49296;48.188;11.566;2022-10-22T00:47:51;14.76;83.57
63202;DHT22;49296;48.188;11.566;2022-10-22T00:50:20;14.79;83.70
63202;DHT22;49296;48.188;11.566;2022-10-22T00:52:49;14.57;84.22
63202;DHT22;49296;48.188;11.566;2022-10-22T00:55:16;14.63;84.52
63202;DHT22;49296;48.188;11.566;2022-10-22T00:57:43;14.52;84.76
63202;DHT22;49296;48.188;11.566;2022-10-22T01:00:10;14.53;85.09
63202;DHT22;49296;48.188;11.566;2022-10-22T01:02:37;14.60;84.83
63202;DHT22;49296;48.188;11.566;2022-10-22T01:05:04;14.45;85.29
63202;DHT22;49296;48.188;11.566;2022-10-22T01:07:30;14.52;85.27
63202;DHT22;49296;48.188;11.566;2022-10-22T01:10:02;14.24;85.99
63202;DHT22;49296;48.188;11.566;2022-10-22T01:12:33;14.24;85.86
63202;DHT22;49296;48.188;11.566;2022-10-22T01:15:06;14.42;85.57
63202;DHT22;49296;48.188;11.566;2022-10-22T01:17:38;14.33;85.56
63202;DHT22;49296;48.188;11.566;2022-10-22T01:20:09;14.40;85.99
63202;DHT22;49296;48.188;11.566;2022-10-22T01:22:39;14.33;86.09
63202;DHT22;49296;48.188;11.566;2022-10-22T01:25:09;14.39;86.02
63202;DHT22;49296;48.188;11.566;2022-10-22T01:27:46;14.49;85.78
63202;DHT22;49296;48.188;11.566;2022-10-22T01:30:19;14.43;85.61
63202;DHT22;49296;48.188;11.566;2022-10-22T01:32:47;14.55;85.34
63202;DHT22;49296;48.188;11.566;2022-10-22T01:35:15;14.50;85.58
63202;DHT22;49296;48.188;11.566;2022-10-22T01:37:45;14.39;85.61
63202;DHT22;49296;48.188;11.566;2022-10-22T01:40:12;14.48;85.55
63202;DHT22;49296;48.188;11.566;2022-10-22T01:42:40;14.50;85.50
63202;DHT22;49296;48.188;11.566;2022-10-22T01:45:10;14.56;85.31
63202;DHT22;49296;48.188;11.566;2022-10-22T01:47:40;14.65;85.19
63202;DHT22;49296;48.188;11.566;2022-10-22T01:50:12;14.56;85.29
63202;DHT22;49296;48.188;11.566;2022-10-22T01:52:48;14.38;85.75
63202;DHT22;49296;48.188;11.566;2022-10-22T01:55:19;14.42;85.72
63202;DHT22;49296;48.188;11.566;2022-10-22T01:57:52;14.40;85.82
63202;DHT22;49296;48.188;11.566;2022-10-22T02:00:21;14.38;85.91
63202;DHT22;49296;48.188;11.566;2022-10-22T02:02:50;14.45;85.60
63202;DHT22;49296;48.188;11.566;2022-10-22T02:05:22;14.39;85.65
63202;DHT22;49296;48.188;11.566;2022-10-22T02:07:50;14.28;85.92
63202;DHT22;49296;48.188;11.566;2022-10-22T02:10:17;14.32;85.87
63202;DHT22;49296;48.188;11.566;2022-10-22T02:12:44;14.26;85.99
63202;DHT22;49296;48.188;11.566;2022-10-22T02:15:13;14.26;85.95
63202;DHT22;49296;48.188;11.566;2022-10-22T02:17:41;14.22;86.33
63202;DHT22;49296;48.188;11.566;2022-10-22T02:20:11;14.22;86.43
63202;DHT22;49296;48.188;11.566;2022-10-22T02:22:39;14.25;86.38
63202;DHT22;49296;48.188;11.566;2022-10-22T02:25:06;14.20;86.53
63202;DHT22;49296;48.188;11.566;2022-10-22T02:27:34;14.13;86.63
63202;DHT22;49296;48.188;11.566;2022-10-22T02:30:04;14.22;86.61
63202;DHT22;49296;48.188;11.566;2022-10-22T02:32:33;14.28;86.33
63202;DHT22;49296;48.188;11.566;2022-10-22T02:35:01;14.22;86.41
63202;DHT22;49296;48.188;11.566;2022-10-22T02:37:29;14.28;86.17
63202;DHT22;49296;48.188;11.566;2022-10-22T02:39:56;14.29;86.36
63202;DHT22;49296;48.188;11.566;2022-10-22T02:42:23;14.26;86.53
63202;DHT22;49296;48.188;11.566;2022-10-22T02:44:49;14.25;86.48
63202;DHT22;49296;48.188;11.566;2022-10-22T02:47:16;14.25;86.25
63202;DHT22;49296;48.188;11.566;2022-10-22T02:49:42;14.20;86.46
63202;DHT22;49296;48.188;11.566;2022-10-22T02:52:09;14.20;86.68
63202;DHT22;49296;48.188;11.566;2022-10-22T02:54:36;14.22;86.56
63202;DHT22;49296;48.188;11.566;2022-10-22T02:57:03;14.25;86.65
63202;DHT22;49296;48.188;11.566;2022-10-22T02:59:29;14.32;86.27
63202;DHT22;49296;48.188;11.566;2022-10-22T03:01:56;14.26;86.68
63202;DHT22;49296;48.188;11.566;2022-10-22T03:04:22;14.24;86.66
63202;DHT22;49296;48.188;11.566;2022-10-22T03:06:49;14.31;86.35
63202;DHT22;49296;48.188;11.566;2022-10-22T03:09:15;14.31;86.33
63202;DHT22;49296;48.188;11.566;2022-10-22T03:11:43;14.26;86.44
63202;DHT22;49296;48.188;11.566;2022-10-22T03:14:09;14.26;86.36
63202;DHT22;49296;48.188;11.566;2022-10-22T03:16:36;14.25;86.33
63202;DHT22;49296;48.188;11.566;2022-10-22T03:19:02;14.17;86.87
63202;DHT22;49296;48.188;11.566;2022-10-22T03:21:30;14.22;86.70
63202;DHT22;49296;48.188;11.566;2022-10-22T03:23:59;14.20;86.57
63202;DHT22;49296;48.188;11.566;2022-10-22T03:26:26;14.15;86.74
63202;DHT22;49296;48.188;11.566;2022-10-22T03:28:54;14.25;86.69
63202;DHT22;49296;48.188;11.566;2022-10-22T03:31:21;14.26;86.47
63202;DHT22;49296;48.188;11.566;2022-10-22T03:33:47;14.25;85.97
63202;DHT22;49296;48.188;11.566;2022-10-22T03:36:14;14.25;85.69
63202;DHT22;49296;48.188;11.566;2022-10-22T03:38:40;14.05;85.30
63202;DHT22;49296;48.188;11.566;2022-10-22T03:41:07;14.10;85.40
63202;DHT22;49296;48.188;11.566;2022-10-22T03:43:33;14.01;85.01
63202;DHT22;49296;48.188;11.566;2022-10-22T03:46:02;13.88;84.95
63202;DHT22;49296;48.188;11.566;2022-10-22T03:48:28;13.87;85.11
63202;DHT22;49296;48.188;11.566;2022-10-22T03:50:55;13.91;85.10
63202;DHT22;49296;48.188;11.566;2022-10-22T03:53:21;13.77;84.95
63202;DHT22;49296;48.188;11.566;2022-10-22T03:55:48;13.79;85.08
63202;DHT22;49296;48.188;11.566;2022-10-22T03:58:14;13.65;85.10
63202;DHT22;49296;48.188;11.566;2022-10-22T04:00:41;13.59;85.27
63202;DHT22;49296;48.188;11.566;2022-10-22T04:03:08;13.51;85.29
63202;DHT22;49296;48.188;11.566;2022-10-22T04:05:35;13.60;84.68
63202;DHT22;49296;48.188;11.566;2022-10-22T04:08:01;13.60;84.27
63202;DHT22;49296;48.188;11.566;2022-10-22T04:10:28;13.58;84.03
63202;DHT22;49296;48.188;11.566;2022-10-22T04:12:54;13.52;84.33
63202;DHT22;49296;48.188;11.566;2022-10-22T04:15:21;13.59;84.57
63202;DHT22;49296;48.188;11.566;2022-10-22T04:17:47;13.52;84.21
63202;DHT22;49296;48.188;11.566;2022-10-22T04:20:15;13.43;84.36
63202;DHT22;49296;48.188;11.566;2022-10-22T04:22:42;13.31;84.67
63202;DHT22;49296;48.188;11.566;2022-10-22T04:25:08;13.41;84.48
63202;DHT22;49296;48.188;11.566;2022-10-22T04:27:35;13.41;84.28
63202;DHT22;49296;48.188;11.566;2022-10-22T04:30:01;13.43;84.20
63202;DHT22;49296;48.188;11.566;2022-10-22T04:32:28;13.43;84.38
63202;DHT22;49296;48.188;11.566;2022-10-22T04:34:54;13.42;83.93
63202;DHT22;49296;48.188;11.566;2022-10-22T04:37:22;13.32;84.33
63202;DHT22;49296;48.188;11.566;2022-10-22T04:39:49;13.31;84.19
63202;DHT22;49296;48.188;11.566;2022-10-22T04:42:15;13.36;83.97
63202;DHT22;49296;48.188;11.566;2022-10-22T04:44:42;13.31;83.38
63202;DHT22;49296;48.188;11.566;2022-10-22T04:47:08;13.31;83.53
63202;DHT22;49296;48.188;11.566;2022-10-22T04:49:34;13.26;83.61
63202;DHT22;49296;48.188;11.566;2022-10-22T04:52:01;13.31;83.67
63202;DHT22;49296;48.188;11.566;2022-10-22T04:54:29;13.29;83.46
63202;DHT22;49296;48.188;11.566;2022-10-22T04:56:55;13.29;83.51
63202;DHT22;49296;48.188;11.566;2022-10-22T04:59:22;13.32;83.44
63202;DHT22;49296;48.188;11.566;2022-10-22T05:01:48;13.34;82.99
63202;DHT22;49296;48.188;11.566;2022-10-22T05:04:15;13.29;82.46
63202;DHT22;49296;48.188;11.566;2022-10-22T05:06:42;13.31;82.30
63202;DHT22;49296;48.188;11.566;2022-10-22T05:09:10;13.28;82.30
63202;DHT22;49296;48.188;11.566;2022-10-22T05:11:38;13.29;82.27
63202;DHT22;49296;48.188;11.566;2022-10-22T05:14:06;13.29;81.41
63202;DHT22;49296;48.188;11.566;2022-10-22T05:16:33;13.21;81.95
63202;DHT22;49296;48.188;11.566;2022-10-22T05:19:02;13.24;81.59
63202;DHT22;49296;48.188;11.566;2022-10-22T05:21:29;13.22;81.01
63202;DHT22;49296;48.188;11.566;2022-10-22T05:23:57;13.25;79.94
63202;DHT22;49296;48.188;11.566;2022-10-22T05:26:25;13.22;80.52
63202;DHT22;49296;48.188;11.566;2022-10-22T05:28:53;13.17;80.45
63202;DHT22;49296;48.188;11.566;2022-10-22T05:31:19;13.22;80.49
63202;DHT22;49296;48.188;11.566;2022-10-22T05:33:46;13.18;81.06
63202;DHT22;49296;48.188;11.566;2022-10-22T05:36:14;13.28;80.74
63202;DHT22;49296;48.188;11.566;2022-10-22T05:38:40;13.11;82.13
63202;DHT22;49296;48.188;11.566;2022-10-22T05:41:08;13.31;82.01
63202;DHT22;49296;48.188;11.566;2022-10-22T05:43:34;13.36;81.72
63202;DHT22;49296;48.188;11.566;2022-10-22T05:46:03;13.41;81.89
63202;DHT22;49296;48.188;11.566;2022-10-22T05:48:30;13.31;82.09
63202;DHT22;49296;48.188;11.566;2022-10-22T05:50:59;13.14;82.43
63202;DHT22;49296;48.188;11.566;2022-10-22T05:53:28;13.18;82.49
63202;DHT22;49296;48.188;11.566;2022-10-22T05:55:55;13.45;81.78
63202;DHT22;49296;48.188;11.566;2022-10-22T05:58:21;13.46;80.97
63202;DHT22;49296;48.188;11.566;2022-10-22T06:00:48;13.34;81.37
63202;DHT22;49296;48.188;11.566;2022-10-22T06:03:15;13.48;80.72
63202;DHT22;49296;48.188;11.566;2022-10-22T06:05:42;13.53;80.41
63202;DHT22;49296;48.188;11.566;2022-10-22T06:08:08;13.51;80.34
63202;DHT22;49296;48.188;11.566;2022-10-22T06:10:35;13.60;80.50
63202;DHT22;49296;48.188;11.566;2022-10-22T06:13:02;13.71;80.34
63202;DHT22;49296;48.188;11.566;2022-10-22T06:15:33;13.81;80.06
63202;DHT22;49296;48.188;11.566;2022-10-22T06:17:59;14.00;79.68
63202;DHT22;49296;48.188;11.566;2022-10-22T06:20:27;13.87;79.42
63202;DHT22;49296;48.188;11.566;2022-10-22T06:22:53;13.94;79.34
63202;DHT22;49296;48.188;11.566;2022-10-22T06:25:20;14.07;79.01
63202;DHT22;49296;48.188;11.566;2022-10-22T06:27:48;14.04;78.06
63202;DHT22;49296;48.188;11.566;2022-10-22T06:30:14;13.96;78.43
63202;DHT22;49296;48.188;11.566;2022-10-22T06:32:40;13.71;78.79
63202;DHT22;49296;48.188;11.566;2022-10-22T06:35:07;13.55;79.92
63202;DHT22;49296;48.188;11.566;2022-10-22T06:37:35;13.66;79.95
63202;DHT22;49296;48.188;11.566;2022-10-22T06:40:01;13.58;79.85
63202;DHT22;49296;48.188;11.566;2022-10-22T06:42:28;13.69;79.25
63202;DHT22;49296;48.188;11.566;2022-10-22T06:44:54;13.74;79.28
63202;DHT22;49296;48.188;11.566;2022-10-22T06:47:21;13.81;78.97
63202;DHT22;49296;48.188;11.566;2022-10-22T06:49:47;13.81;79.01
63202;DHT22;49296;48.188;11.566;2022-10-22T06:52:14;13.97;78.68
63202;DHT22;49296;48.188;11.566;2022-10-22T06:54:42;14.00;78.59
63202;DHT22;49296;48.188;11.566;2022-10-22T06:57:08;13.79;78.81
63202;DHT22;49296;48.188;11.566;2022-10-22T06:59:35;13.73;79.20
63202;DHT22;49296;48.188;11.566;2022-10-22T07:02:01;13.60;79.44
63202;DHT22;49296;48.188;11.566;2022-10-22T07:04:27;13.73;78.81
63202;DHT22;49296;48.188;11.566;2022-10-22T07:06:54;13.90;78.70
63202;DHT22;49296;48.188;11.566;2022-10-22T07:09:20;13.88;78.91
63202;DHT22;49296;48.188;11.566;2022-10-22T07:11:48;13.84;78.99
63202;DHT22;49296;48.188;11.566;2022-10-22T07:14:15;13.93;79.00
63202;DHT22;49296;48.188;11.566;2022-10-22T07:16:41;14.20;78.77
63202;DHT22;49296;48.188;11.566;2022-10-22T07:19:09;14.21;78.49
63202;DHT22;49296;48.188;11.566;2022-10-22T07:21:36;14.10;78.72
63202;DHT22;49296;48.188;11.566;2022-10-22T07:24:03;14.05;78.73
63202;DHT22;49296;48.188;11.566;2022-10-22T07:26:29;14.08;78.76
63202;DHT22;49296;48.188;11.566;2022-10-22T07:28:58;14.28;78.19
63202;DHT22;49296;48.188;11.566;2022-10-22T07:31:24;14.39;77.81
63202;DHT22;49296;48.188;11.566;2022-10-22T07:33:51;14.38;77.82
63202;DHT22;49296;48.188;11.566;2022-10-22T07:36:17;14.39;77.86
63202;DHT22;49296;48.188;11.566;2022-10-22T07:38:44;14.32;78.08
63202;DHT22;49296;48.188;11.566;2022-10-22T07:41:10;14.05;78.79
63202;DHT22;49296;48.188;11.566;2022-10-22T07:43:37;14.29;78.83
63202;DHT22;49296;48.188;11.566;2022-10-22T07:46:05;14.39;78.46
63202;DHT22;49296;48.188;11.566;2022-10-22T07:48:32;14.50;78.05
63202;DHT22;49296;48.188;11.566;2022-10-22T07:50:59;14.46;77.96
63202;DHT22;49296;48.188;11.566;2022-10-22T07:53:25;14.43;77.87
63202;DHT22;49296;48.188;11.566;2022-10-22T07:55:52;14.57;77.83
63202;DHT22;49296;48.188;11.566;2022-10-22T07:58:19;14.73;77.48
63202;DHT22;49296;48.188;11.566;2022-10-22T08:00:46;14.87;76.91
63202;DHT22;49296;48.188;11.566;2022-10-22T08:03:15;14.83;77.01
63202;DHT22;49296;48.188;11.566;2022-10-22T08:05:42;14.62;77.56
63202;DHT22;49296;48.188;11.566;2022-10-22T08:08:09;14.66;77.58
63202;DHT22;49296;48.188;11.566;2022-10-22T08:10:36;14.84;77.05
63202;DHT22;49296;48.188;11.566;2022-10-22T08:13:02;14.70;77.27
63202;DHT22;49296;48.188;11.566;2022-10-22T08:15:29;14.66;77.60
63202;DHT22;49296;48.188;11.566;2022-10-22T08:17:55;14.65;77.60
63202;DHT22;49296;48.188;11.566;2022-10-22T08:20:23;14.55;78.01
63202;DHT22;49296;48.188;11.566;2022-10-22T08:22:50;14.66;77.98
63202;DHT22;49296;48.188;11.566;2022-10-22T08:25:16;14.59;77.86
63202;DHT22;49296;48.188;11.566;2022-10-22T08:27:43;14.69;78.03
63202;DHT22;49296;48.188;11.566;2022-10-22T08:30:10;14.59;78.16
63202;DHT22;49296;48.188;11.566;2022-10-22T08:32:37;14.63;77.92
63202;DHT22;49296;48.188;11.566;2022-10-22T08:35:03;14.81;77.78
63202;DHT22;49296;48.188;11.566;2022-10-22T08:37:31;14.63;77.97
63202;DHT22;49296;48.188;11.566;2022-10-22T08:39:58;14.74;77.51
63202;DHT22;49296;48.188;11.566;2022-10-22T08:42:28;14.67;77.85
63202;DHT22;49296;48.188;11.566;2022-10-22T08:45:01;14.73;77.69
63202;DHT22;49296;48.188;11.566;2022-10-22T08:50:18;14.56;78.41
63202;DHT22;49296;48.188;11.566;2022-10-22T08:52:50;14.63;78.71
63202;DHT22;49296;48.188;11.566;2022-10-22T08:55:18;14.73;78.28
63202;DHT22;49296;48.188;11.566;2022-10-22T08:57:47;14.93;77.57
63202;DHT22;49296;48.188;11.566;2022-10-22T09:00:16;14.90;77.42
63202;DHT22;49296;48.188;11.566;2022-10-22T09:02:47;14.83;78.01
63202;DHT22;49296;48.188;11.566;2022-10-22T09:05:21;14.87;77.66
63202;DHT22;49296;48.188;11.566;2022-10-22T09:07:50;14.87;77.86
63202;DHT22;49296;48.188;11.566;2022-10-22T09:10:17;15.02;77.59
63202;DHT22;49296;48.188;11.566;2022-10-22T09:12:44;14.93;78.03
63202;DHT22;49296;48.188;11.566;2022-10-22T09:15:12;14.79;78.17
63202;DHT22;49296;48.188;11.566;2022-10-22T09:17:40;14.79;78.35
63202;DHT22;49296;48.188;11.566;2022-10-22T09:20:13;14.94;78.03
63202;DHT22;49296;48.188;11.566;2022-10-22T09:22:41;15.19;77.49
63202;DHT22;49296;48.188;11.566;2022-10-22T09:25:22;15.31;77.66
63202;DHT22;49296;48.188;11.566;2022-10-22T09:27:49;15.50;76.98
63202;DHT22;49296;48.188;11.566;2022-10-22T09:30:17;15.47;76.43
63202;DHT22;49296;48.188;11.566;2022-10-22T09:32:44;15.35;76.17
63202;DHT22;49296;48.188;11.566;2022-10-22T09:35:10;15.22;77.23
63202;DHT22;49296;48.188;11.566;2022-10-22T09:37:43;15.36;76.90
63202;DHT22;49296;48.188;11.566;2022-10-22T09:40:12;15.32;77.11
63202;DHT22;49296;48.188;11.566;2022-10-22T09:42:40;15.49;76.11
63202;DHT22;49296;48.188;11.566;2022-10-22T09:45:14;15.64;75.98
63202;DHT22;49296;48.188;11.566;2022-10-22T09:47:41;15.70;75.90
63202;DHT22;49296;48.188;11.566;2022-10-22T09:50:11;15.77;75.42
63202;DHT22;49296;48.188;11.566;2022-10-22T09:52:43;15.59;75.86
63202;DHT22;49296;48.188;11.566;2022-10-22T09:55:12;15.70;75.92
63202;DHT22;49296;48.188;11.566;2022-10-22T09:57:40;15.81;75.87
63202;DHT22;49296;48.188;11.566;2022-10-22T10:00:07;15.87;75.85
63202;DHT22;49296;48.188;11.566;2022-10-22T10:02:34;15.88;75.48
63202;DHT22;49296;48.188;11.566;2022-10-22T10:05:03;15.77;75.62
63202;DHT22;49296;48.188;11.566;2022-10-22T10:07:30;15.84;74.89
63202;DHT22;49296;48.188;11.566;2022-10-22T10:09:56;15.94;75.18
63202;DHT22;49296;48.188;11.566;2022-10-22T10:12:26;15.83;74.88
63202;DHT22;49296;48.188;11.566;2022-10-22T10:14:57;15.94;74.71
63202;DHT22;49296;48.188;11.566;2022-10-22T10:17:26;16.02;74.06
63202;DHT22;49296;48.188;11.566;2022-10-22T10:20:01;16.18;74.57
63202;DHT22;49296;48.188;11.566;2022-10-22T10:25:13;16.29;74.46
63202;DHT22;49296;48.188;11.566;2022-10-22T10:27:46;16.22;74.09
63202;DHT22;49296;48.188;11.566;2022-10-22T10:30:17;16.42;73.84
63202;DHT22;49296;48.188;11.566;2022-10-22T10:32:54;16.38;74.38
63202;DHT22;49296;48.188;11.566;2022-10-22T10:35:24;16.22;74.31
63202;DHT22;49296;48.188;11.566;2022-10-22T10:37:55;16.19;74.12
63202;DHT22;49296;48.188;11.566;2022-10-22T10:40:25;16.29;73.61
63202;DHT22;49296;48.188;11.566;2022-10-22T10:42:54;16.29;73.50
63202;DHT22;49296;48.188;11.566;2022-10-22T10:45:26;16.38;72.94
63202;DHT22;49296;48.188;11.566;2022-10-22T10:48:00;16.42;73.08
63202;DHT22;49296;48.188;11.566;2022-10-22T10:50:29;16.48;73.26
63202;DHT22;49296;48.188;11.566;2022-10-22T10:53:02;16.57;72.97
63202;DHT22;49296;48.188;11.566;2022-10-22T10:55:30;16.57;72.79
63202;DHT22;49296;48.188;11.566;2022-10-22T10:58:01;16.59;70.44
63202;DHT22;49296;48.188;11.566;2022-10-22T11:00:30;16.57;70.22
63202;DHT22;49296;48.188;11.566;2022-10-22T11:03:13;16.49;71.49
63202;DHT22;49296;48.188;11.566;2022-10-22T11:05:41;16.56;71.52
63202;DHT22;49296;48.188;11.566;2022-10-22T11:08:10;16.53;71.63
63202;DHT22;49296;48.188;11.566;2022-10-22T11:10:39;16.49;71.88
63202;DHT22;49296;48.188;11.566;2022-10-22T11:13:10;16.59;71.56
63202;DHT22;49296;48.188;11.566;2022-10-22T11:15:39;16.56;72.32
63202;DHT22;49296;48.188;11.566;2022-10-22T11:18:10;16.56;72.55
63202;DHT22;49296;48.188;11.566;2022-10-22T11:23:37;16.84;72.01
63202;DHT22;49296;48.188;11.566;2022-10-22T11:26:09;16.85;71.54
63202;DHT22;49296;48.188;11.566;2022-10-22T11:28:39;17.00;72.02
63202;DHT22;49296;48.188;11.566;2022-10-22T11:31:09;17.10;70.66
63202;DHT22;49296;48.188;11.566;2022-10-22T11:33:39;17.23;70.37
63202;DHT22;49296;48.188;11.566;2022-10-22T11:36:07;17.32;70.13
63202;DHT22;49296;48.188;11.566;2022-10-22T11:38:35;17.30;70.40
63202;DHT22;49296;48.188;11.566;2022-10-22T11:41:04;17.26;70.79
63202;DHT22;49296;48.188;11.566;2022-10-22T11:43:31;17.39;69.05
63202;DHT22;49296;48.188;11.566;2022-10-22T11:46:00;17.54;67.53
63202;DHT22;49296;48.188;11.566;2022-10-22T11:48:33;17.73;67.82
63202;DHT22;49296;48.188;11.566;2022-10-22T11:51:01;17.92;67.60
63202;DHT22;49296;48.188;11.566;2022-10-22T11:53:29;17.90;66.44
63202;DHT22;49296;48.188;11.566;2022-10-22T11:55:56;17.90;66.90
63202;DHT22;49296;48.188;11.566;2022-10-22T11:58:31;17.80;67.50
63202;DHT22;49296;48.188;11.566;2022-10-22T12:01:16;17.78;67.69
63202;DHT22;49296;48.188;11.566;2022-10-22T12:03:47;17.85;67.86
63202;DHT22;49296;48.188;11.566;2022-10-22T12:06:18;17.80;68.65
63202;DHT22;49296;48.188;11.566;2022-10-22T12:08:45;17.83;68.34
63202;DHT22;49296;48.188;11.566;2022-10-22T12:11:19;17.83;69.11
63202;DHT22;49296;48.188;11.566;2022-10-22T12:13:51;17.63;68.09
63202;DHT22;49296;48.188;11.566;2022-10-22T12:16:19;17.42;68.65
63202;DHT22;49296;48.188;11.566;2022-10-22T12:18:52;17.45;69.01
63202;DHT22;49296;48.188;11.566;2022-10-22T12:21:20;17.50;68.21
63202;DHT22;49296;48.188;11.566;2022-10-22T12:23:47;17.46;68.21
63202;DHT22;49296;48.188;11.566;2022-10-22T12:26:23;17.56;67.87
63202;DHT22;49296;48.188;11.566;2022-10-22T12:28:50;17.78;67.03
63202;DHT22;49296;48.188;11.566;2022-10-22T12:31:17;18.06;66.95
63202;DHT22;49296;48.188;11.566;2022-10-22T12:33:43;18.18;65.66
63202;DHT22;49296;48.188;11.566;2022-10-22T12:36:15;18.28;66.00
63202;DHT22;49296;48.188;11.566;2022-10-22T12:38:44;18.04;66.32
63202;DHT22;49296;48.188;11.566;2022-10-22T12:41:11;17.77;66.34
63202;DHT22;49296;48.188;11.566;2022-10-22T12:43:38;17.57;66.46
63202;DHT22;49296;48.188;11.566;2022-10-22T12:46:07;17.60;66.41
63202;DHT22;49296;48.188;11.566;2022-10-22T12:48:38;17.85;66.43
63202;DHT22;49296;48.188;11.566;2022-10-22T12:51:05;18.06;65.51
63202;DHT22;49296;48.188;11.566;2022-10-22T12:53:35;18.26;65.18
63202;DHT22;49296;48.188;11.566;2022-10-22T12:56:03;17.97;65.49
63202;DHT22;49296;48.188;11.566;2022-10-22T12:58:32;17.78;65.69
63202;DHT22;49296;48.188;11.566;2022-10-22T13:00:59;17.87;65.29
63202;DHT22;49296;48.188;11.566;2022-10-22T13:03:27;18.25;65.21
63202;DHT22;49296;48.188;11.566;2022-10-22T13:05:54;18.42;64.82
63202;DHT22;49296;48.188;11.566;2022-10-22T13:08:21;18.36;64.18
63202;DHT22;49296;48.188;11.566;2022-10-22T13:10:50;18.57;64.15
63202;DHT22;49296;48.188;11.566;2022-10-22T13:13:29;18.74;63.83
63202;DHT22;49296;48.188;11.566;2022-10-22T13:15:55;18.94;63.97
63202;DHT22;49296;48.188;11.566;2022-10-22T13:18:37;19.04;63.20
63202;DHT22;49296;48.188;11.566;2022-10-22T13:21:03;18.87;63.56
63202;DHT22;49296;48.188;11.566;2022-10-22T13:23:30;18.99;63.41
63202;DHT22;49296;48.188;11.566;2022-10-22T13:26:00;19.01;62.89
63202;DHT22;49296;48.188;11.566;2022-10-22T13:28:27;19.08;63.37
63202;DHT22;49296;48.188;11.566;2022-10-22T13:30:56;18.92;62.72
63202;DHT22;49296;48.188;11.566;2022-10-22T13:33:23;18.99;62.95
63202;DHT22;49296;48.188;11.566;2022-10-22T13:35:51;19.05;62.71
63202;DHT22;49296;48.188;11.566;2022-10-22T13:38:19;18.72;63.91
63202;DHT22;49296;48.188;11.566;2022-10-22T13:40:46;18.65;64.74
63202;DHT22;49296;48.188;11.566;2022-10-22T13:43:14;18.61;64.99
63202;DHT22;49296;48.188;11.566;2022-10-22T13:45:41;18.63;64.35
63202;DHT22;49296;48.188;11.566;2022-10-22T13:48:08;18.67;64.55
63202;DHT22;49296;48.188;11.566;2022-10-22T13:50:38;18.74;64.60
63202;DHT22;49296;48.188;11.566;2022-10-22T13:53:04;18.61;65.18
63202;DHT22;49296;48.188;11.566;2022-10-22T13:55:32;18.40;65.35
63202;DHT22;49296;48.188;11.566;2022-10-22T13:57:59;18.49;65.42
63202;DHT22;49296;48.188;11.566;2022-10-22T14:00:28;18.40;65.53
63202;DHT22;49296;48.188;11.566;2022-10-22T14:02:56;18.42;65.40
63202;DHT22;49296;48.188;11.566;2022-10-22T14:05:23;18.57;65.18
63202;DHT22;49296;48.188;11.566;2022-10-22T14:07:49;18.74;65.01
63202;DHT22;49296;48.188;11.566;2022-10-22T14:10:17;18.61;65.15
63202;DHT22;49296;48.188;11.566;2022-10-22T14:12:43;18.63;65.34
63202;DHT22;49296;48.188;11.566;2022-10-22T14:15:10;18.61;65.01
63202;DHT22;49296;48.188;11.566;2022-10-22T14:17:39;18.70;64.56
63202;DHT22;49296;48.188;11.566;2022-10-22T14:20:08;18.78;64.87
63202;DHT22;49296;48.188;11.566;2022-10-22T14:22:35;18.85;64.46
63202;DHT22;49296;48.188;11.566;2022-10-22T14:25:02;18.88;64.30
63202;DHT22;49296;48.188;11.566;2022-10-22T14:27:29;18.71;64.23
63202;DHT22;49296;48.188;11.566;2022-10-22T14:29:55;18.59;64.83
63202;DHT22;49296;48.188;11.566;2022-10-22T14:32:22;18.72;64.37
63202;DHT22;49296;48.188;11.566;2022-10-22T14:34:49;18.94;62.97
63202;DHT22;49296;48.188;11.566;2022-10-22T14:37:16;18.97;62.84
63202;DHT22;49296;48.188;11.566;2022-10-22T14:39:44;18.88;62.93
63202;DHT22;49296;48.188;11.566;2022-10-22T14:42:16;18.74;63.46
63202;DHT22;49296;48.188;11.566;2022-10-22T14:44:42;18.74;63.47
63202;DHT22;49296;48.188;11.566;2022-10-22T14:47:08;18.77;62.97
63202;DHT22;49296;48.188;11.566;2022-10-22T14:49:35;18.81;62.55
63202;DHT22;49296;48.188;11.566;2022-10-22T14:52:03;18.85;62.10
63202;DHT22;49296;48.188;11.566;2022-10-22T14:54:29;18.80;62.00
63202;DHT22;49296;48.188;11.566;2022-10-22T14:56:57;18.67;62.02
63202;DHT22;49296;48.188;11.566;2022-10-22T14:59:23;18.60;62.00
63202;DHT22;49296;48.188;11.566;2022-10-22T15:01:50;18.47;61.74
63202;DHT22;49296;48.188;11.566;2022-10-22T15:04:16;18.59;62.30
63202;DHT22;49296;48.188;11.566;2022-10-22T15:06:42;18.18;61.94
63202;DHT22;49296;48.188;11.566;2022-10-22T15:09:10;18.11;62.22
63202;DHT22;49296;48.188;11.566;2022-10-22T15:11:37;18.12;62.11
63202;DHT22;49296;48.188;11.566;2022-10-22T15:14:03;18.15;62.38
63202;DHT22;49296;48.188;11.566;2022-10-22T15:16:30;18.08;62.77
63202;DHT22;49296;48.188;11.566;2022-10-22T15:18:56;18.01;62.64
63202;DHT22;49296;48.188;11.566;2022-10-22T15:21:23;17.97;63.38
63202;DHT22;49296;48.188;11.566;2022-10-22T15:23:50;17.91;63.24
63202;DHT22;49296;48.188;11.566;2022-10-22T15:26:18;18.01;63.23
63202;DHT22;49296;48.188;11.566;2022-10-22T15:28:44;17.94;63.30